createdAt,value
2019-04-01T00:02:21.034Z,9.70
2019-04-01T00:04:56.057Z,9.70
2019-04-01T00:07:24.550Z,10.88
2019-04-01T00:09:52.869Z,10.53
2019-04-01T00:12:28.354Z,10.58
2019-04-01T00:14:56.738Z,10.75
2019-04-01T00:17:25.052Z,10.55
2019-04-01T00:20:00.952Z,11.18
2019-04-01T00:22:29.378Z,10.80
2019-04-01T00:24:58.048Z,11.45
2019-04-01T00:27:33.133Z,10.48
2019-04-01T00:30:01.559Z,11.30
2019-04-01T00:32:29.866Z,11.57
2019-04-01T00:35:04.891Z,12.28
2019-04-01T00:37:33.355Z,10.98
2019-04-01T00:40:01.717Z,12.18
2019-04-01T00:42:41.577Z,10.78
2019-04-01T00:45:11.600Z,11.12
2019-04-01T00:47:39.976Z,11.07
2019-04-01T00:50:14.677Z,12.45
2019-04-01T00:52:43.113Z,13.15
2019-04-01T00:55:18.457Z,12.00
2019-04-01T00:57:53.761Z,13.35
2019-04-01T01:00:22.554Z,12.40
2019-04-01T01:02:52.285Z,13.35
2019-04-01T01:05:27.092Z,12.68
2019-04-01T01:07:56.185Z,12.47
2019-04-01T01:10:24.523Z,13.30
2019-04-01T01:13:00.044Z,12.88
2019-04-01T01:15:28.361Z,13.98
2019-04-01T01:17:57.056Z,13.38
2019-04-01T01:20:31.672Z,14.13
2019-04-01T01:23:00.172Z,13.72
2019-04-01T01:25:28.873Z,14.58
2019-04-01T01:28:03.982Z,14.50
2019-04-01T01:30:32.340Z,14.63
2019-04-01T01:33:01.066Z,14.15
2019-04-01T01:35:36.142Z,14.35
2019-04-01T01:38:04.571Z,13.72
2019-04-01T01:40:33.251Z,14.13
2019-04-01T01:43:09.093Z,14.10
2019-04-01T01:45:37.609Z,15.25
2019-04-01T01:48:06.295Z,12.68
2019-04-01T01:50:41.889Z,13.43
2019-04-01T01:53:10.185Z,14.38
2019-04-01T01:55:38.489Z,13.55
2019-04-01T01:58:13.419Z,13.50
2019-04-01T02:00:41.902Z,14.40
2019-04-01T02:03:10.681Z,14.45
2019-04-01T02:05:46.005Z,14.30
2019-04-01T02:08:14.321Z,15.43
2019-04-01T02:10:42.625Z,13.43
2019-04-01T02:13:20.142Z,14.63
2019-04-01T02:15:48.045Z,14.73
2019-04-01T02:18:16.342Z,14.33
2019-04-01T02:20:51.793Z,12.50
2019-04-01T02:23:20.638Z,14.47
2019-04-01T02:25:49.325Z,13.55
2019-04-01T02:28:24.816Z,13.68
2019-04-01T02:30:53.122Z,14.18
2019-04-01T02:33:21.581Z,13.98
2019-04-01T02:35:56.645Z,14.03
2019-04-01T02:38:25.045Z,14.85
2019-04-01T02:40:53.372Z,14.75
2019-04-01T02:43:28.731Z,12.90
2019-04-01T02:45:57.244Z,14.95
2019-04-01T02:48:26.043Z,13.93
2019-04-01T02:51:01.232Z,13.85
2019-04-01T02:53:29.958Z,13.85
2019-04-01T02:55:58.640Z,14.23
2019-04-01T02:58:40.312Z,13.90
2019-04-01T03:01:08.614Z,11.85
2019-04-01T03:03:36.993Z,13.78
2019-04-01T03:06:12.771Z,11.75
2019-04-01T03:08:41.104Z,13.10
2019-04-01T03:11:10.766Z,12.90
2019-04-01T03:13:46.861Z,12.58
2019-04-01T03:16:15.637Z,13.38
2019-04-01T03:18:44.671Z,12.95
2019-04-01T03:21:20.305Z,12.55
2019-04-01T03:23:49.006Z,12.28
2019-04-01T03:26:17.776Z,13.13
2019-04-01T03:28:52.684Z,13.13
2019-04-01T03:31:21.197Z,13.05
2019-04-01T03:33:49.746Z,12.98
2019-04-01T03:36:25.399Z,12.03
2019-04-01T03:38:53.830Z,11.97
2019-04-01T08:15:57.785Z,9.33
2019-04-01T08:18:26.436Z,8.85
2019-04-01T08:20:54.781Z,9.08
2019-04-01T08:23:30.062Z,9.65
2019-04-01T08:25:58.626Z,10.00
2019-04-01T08:28:27.301Z,9.00
2019-04-01T08:31:02.730Z,9.25
2019-04-01T08:33:31.217Z,9.23
2019-04-01T08:35:59.554Z,10.15
2019-04-01T08:38:34.691Z,10.40
2019-04-01T08:41:03.026Z,9.50
2019-04-01T08:43:31.325Z,9.80
2019-04-01T08:46:05.834Z,11.08
2019-04-01T08:48:35.680Z,9.73
2019-04-01T08:51:04.665Z,11.40
2019-04-01T08:53:33.120Z,10.88
2019-04-01T08:56:02.206Z,10.80
2019-04-01T08:58:30.925Z,11.68
2019-04-01T09:00:59.227Z,11.18
2019-04-01T09:03:28.453Z,12.05
2019-04-01T09:05:57.057Z,11.78
2019-04-01T09:08:25.742Z,12.20
2019-04-01T09:10:54.035Z,11.25
2019-04-01T09:13:22.657Z,12.30
2019-04-01T09:15:51.272Z,11.75
2019-04-01T09:18:19.996Z,11.85
2019-04-01T09:20:48.692Z,13.65
2019-04-01T09:23:17.744Z,14.47
2019-04-01T09:25:46.052Z,11.78
2019-04-01T09:28:15.117Z,12.80
2019-04-01T09:30:43.809Z,12.85
2019-04-01T09:33:12.477Z,12.58
2019-04-01T09:35:41.434Z,11.97
2019-04-01T09:38:09.870Z,13.13
2019-04-01T09:40:38.597Z,13.55
2019-04-01T09:43:06.920Z,12.68
2019-04-01T09:45:35.655Z,13.75
2019-04-01T09:48:10.180Z,13.30
2019-04-01T09:50:40.375Z,14.90
2019-04-01T09:53:08.949Z,15.08
2019-04-01T09:55:37.633Z,14.03
2019-04-01T09:58:07.628Z,15.15
2019-04-01T10:00:36.235Z,13.83
2019-04-01T10:03:04.590Z,14.58
2019-04-01T10:05:34.591Z,14.35
2019-04-01T10:08:08.629Z,14.70
2019-04-01T10:10:36.949Z,15.93
2019-04-01T10:13:12.309Z,16.55
2019-04-01T10:15:40.612Z,15.98
2019-04-01T10:18:08.913Z,15.78
2019-04-01T10:20:37.837Z,17.15
2019-04-01T10:23:06.333Z,17.40
2019-04-01T10:25:39.353Z,16.05
2019-04-01T10:28:07.745Z,16.50
2019-04-01T10:30:36.079Z,15.88
2019-04-01T10:33:10.872Z,17.10
2019-04-01T10:35:40.155Z,16.55
2019-04-01T10:38:08.465Z,17.98
2019-04-01T10:40:44.041Z,17.32
2019-04-01T10:43:12.435Z,15.90
2019-04-01T10:45:40.941Z,15.88
2019-04-01T10:48:15.718Z,16.12
2019-04-01T10:50:50.636Z,16.45
2019-04-01T10:53:19.194Z,16.17
2019-04-01T10:55:53.988Z,16.40
2019-04-01T10:58:22.747Z,16.67
2019-04-01T11:00:51.520Z,15.98
2019-04-01T11:03:27.144Z,16.82
2019-04-01T11:05:56.288Z,16.95
2019-04-01T11:08:24.929Z,18.48
2019-04-01T11:10:59.795Z,18.45
2019-04-01T11:13:28.437Z,17.42
2019-04-01T11:15:56.781Z,18.23
2019-04-01T11:18:31.857Z,17.05
2019-04-01T11:21:00.226Z,17.50
2019-04-01T11:23:28.595Z,18.35
2019-04-01T11:26:03.514Z,16.00
2019-04-01T11:28:32.461Z,17.15
2019-04-01T11:31:01.129Z,17.75
2019-04-01T11:33:36.925Z,16.85
2019-04-01T11:36:05.531Z,16.67
2019-04-01T11:38:34.174Z,16.90
2019-04-01T11:41:09.590Z,16.67
2019-04-01T11:43:38.092Z,17.23
2019-04-01T11:46:06.741Z,16.10
2019-04-01T11:48:42.902Z,16.95
2019-04-01T11:51:32.014Z,16.77
2019-04-01T11:53:55.110Z,16.05
2019-04-01T11:56:26.376Z,16.95
2019-04-01T11:58:56.597Z,17.23
2019-04-01T12:01:31.185Z,18.00
2019-04-01T12:03:59.904Z,17.37
2019-04-01T12:06:28.582Z,17.92
2019-04-01T12:09:03.453Z,17.20
2019-04-01T12:11:31.793Z,16.90
2019-04-01T12:14:00.370Z,18.20
2019-04-01T12:16:36.033Z,17.48
2019-04-01T12:19:04.337Z,17.48
2019-04-01T12:21:32.700Z,17.48
2019-04-01T12:24:08.644Z,17.07
2019-04-01T12:26:44.338Z,16.82
2019-04-01T12:29:19.229Z,17.42
2019-04-01T12:31:48.209Z,18.27
2019-04-01T12:34:16.899Z,18.12
2019-04-01T12:36:53.424Z,17.65
2019-04-01T12:39:22.044Z,17.23
2019-04-01T12:41:50.430Z,16.73
2019-04-01T12:44:25.935Z,18.10
2019-04-01T12:46:54.358Z,16.97
2019-04-01T12:49:22.971Z,17.60
2019-04-01T12:51:51.753Z,17.87
2019-04-01T12:54:20.362Z,17.92
2019-04-01T12:56:49.040Z,17.73
2019-04-01T12:59:17.862Z,17.30
2019-04-01T13:01:46.188Z,17.98
2019-04-01T13:04:15.255Z,17.32
2019-04-01T13:06:43.854Z,19.55
2019-04-01T13:09:12.613Z,17.85
2019-04-01T13:11:41.259Z,18.62
2019-04-01T13:14:09.943Z,18.55
2019-04-01T13:16:38.281Z,18.65
2019-04-01T13:19:06.646Z,18.65
2019-04-01T13:21:35.121Z,17.62
2019-04-01T13:24:04.987Z,19.60
2019-04-01T13:26:33.520Z,19.25
2019-04-01T13:29:02.070Z,18.80
2019-04-01T13:31:30.700Z,18.52
2019-04-01T13:33:59.127Z,17.70
2019-04-01T13:36:27.765Z,19.27
2019-04-01T13:38:56.777Z,18.65
2019-04-01T13:41:25.341Z,21.10
2019-04-01T13:43:53.792Z,20.57
2019-04-01T13:46:22.409Z,19.98
2019-04-01T13:48:57.424Z,31.55
2019-04-01T13:51:21.166Z,18.90
2019-04-01T13:53:49.684Z,17.95
2019-04-01T13:56:18.413Z,19.12
2019-04-01T13:58:49.686Z,19.52
2019-04-01T14:01:17.813Z,19.95
2019-04-01T14:03:46.112Z,19.87
2019-04-01T14:06:15.210Z,18.85
2019-04-01T14:08:43.849Z,19.40
2019-04-01T14:11:12.598Z,20.82
2019-04-01T14:13:41.201Z,19.95
2019-04-01T14:16:09.588Z,18.98
2019-04-01T14:18:37.941Z,20.15
2019-04-01T14:21:15.871Z,20.17
2019-04-01T14:23:36.780Z,19.27
2019-04-01T14:26:05.144Z,18.80
2019-04-01T14:28:33.465Z,19.98
2019-04-01T14:31:02.034Z,18.73
2019-04-01T14:33:32.604Z,19.60
2019-04-01T14:36:00.802Z,20.12
2019-04-01T14:38:29.361Z,20.57
2019-04-01T14:40:58.240Z,20.05
2019-04-01T14:43:26.759Z,20.15
2019-04-01T14:45:55.826Z,20.17
2019-04-01T14:48:24.511Z,20.20
2019-04-01T14:50:52.898Z,20.02
2019-04-01T14:53:21.578Z,21.33
2019-04-01T14:55:50.117Z,20.12
2019-04-01T14:58:18.520Z,20.75
2019-04-01T15:00:47.626Z,21.12
2019-04-01T15:03:16.263Z,19.90
2019-04-01T15:05:45.793Z,20.25
2019-04-01T15:08:14.398Z,21.77
2019-04-01T15:10:44.155Z,20.23
2019-04-01T15:13:13.469Z,21.80
2019-04-01T15:15:42.189Z,19.00
2019-04-01T15:18:10.890Z,20.62
2019-04-01T15:20:39.213Z,21.35
2019-04-01T15:23:07.837Z,20.35
2019-04-01T15:25:36.498Z,20.65
2019-04-01T15:28:04.814Z,20.30
2019-04-01T15:30:33.436Z,21.65
2019-04-01T15:33:02.172Z,21.07
2019-04-01T15:35:30.807Z,21.02
2019-04-01T15:37:59.564Z,21.27
2019-04-01T15:40:28.267Z,20.17
2019-04-01T15:42:56.900Z,20.68
2019-04-01T15:45:25.211Z,21.20
2019-04-01T15:47:53.608Z,20.82
2019-04-01T15:50:28.846Z,21.30
2019-04-01T15:52:52.537Z,20.77
2019-04-01T15:55:21.122Z,21.95
2019-04-01T15:57:49.816Z,22.48
2019-04-01T16:00:19.697Z,21.73
2019-04-01T16:02:48.154Z,21.00
2019-04-01T16:05:16.677Z,22.15
2019-04-01T16:07:45.545Z,21.60
2019-04-01T16:10:13.841Z,21.85
2019-04-01T16:12:42.409Z,21.35
2019-04-01T16:15:11.014Z,22.52
2019-04-01T16:17:39.352Z,23.12
2019-04-01T16:20:07.733Z,21.70
2019-04-01T16:22:36.320Z,22.67
2019-04-01T16:25:06.673Z,21.95
2019-04-01T16:27:35.045Z,23.18
2019-04-01T16:30:03.795Z,21.35
2019-04-01T16:32:32.256Z,22.73
2019-04-01T16:35:00.562Z,24.10
2019-04-01T16:37:29.191Z,23.55
2019-04-01T16:39:57.601Z,21.35
2019-04-01T16:42:26.159Z,20.30
2019-04-01T16:44:54.561Z,23.47
2019-04-01T16:47:23.154Z,21.20
2019-04-01T16:49:51.534Z,21.93
2019-04-01T16:52:19.918Z,22.77
2019-04-01T16:54:52.112Z,22.37
2019-04-01T16:57:20.822Z,23.65
2019-04-01T16:59:49.540Z,24.45
2019-04-01T17:02:18.630Z,23.25
2019-04-01T17:04:48.415Z,21.62
2019-04-01T17:07:19.761Z,22.02
2019-04-01T17:09:48.396Z,22.52
2019-04-01T17:12:16.733Z,23.42
2019-04-01T17:14:45.392Z,21.77
2019-04-01T17:17:13.981Z,22.25
2019-04-01T17:19:42.769Z,21.82
2019-04-01T17:22:11.588Z,22.67
2019-04-01T17:24:40.510Z,22.85
2019-04-01T17:27:11.258Z,23.70
2019-04-01T17:29:41.337Z,22.15
2019-04-01T17:32:09.797Z,23.15
2019-04-01T17:34:38.537Z,23.35
2019-04-01T17:37:07.169Z,23.07
2019-04-01T17:39:35.907Z,22.67
2019-04-01T17:42:05.176Z,22.67
2019-04-01T17:44:33.654Z,22.45
2019-04-01T17:47:02.324Z,23.47
2019-04-01T17:49:31.158Z,22.60
2019-04-01T17:52:00.100Z,24.20
2019-04-01T17:54:28.500Z,23.15
2019-04-01T17:56:56.809Z,24.70
2019-04-01T17:59:25.841Z,24.02
2019-04-01T18:01:57.041Z,22.37
2019-04-01T18:04:25.353Z,24.27
2019-04-01T18:06:53.672Z,24.45
2019-04-01T18:09:22.165Z,27.87
2019-04-01T18:11:50.861Z,25.82
2019-04-01T18:14:19.579Z,24.15
2019-04-01T18:16:48.225Z,24.70
2019-04-01T18:19:16.566Z,22.67
2019-04-01T18:21:44.917Z,22.48
2019-04-01T18:24:13.420Z,23.85
2019-04-01T18:26:41.821Z,24.45
2019-04-01T18:29:10.377Z,24.25
2019-04-01T18:31:38.749Z,23.07
2019-04-01T18:34:07.350Z,22.42
2019-04-01T18:36:36.113Z,22.77
2019-04-01T18:39:07.361Z,24.00
2019-04-01T18:41:35.923Z,25.02
2019-04-01T18:44:04.989Z,23.75
2019-04-01T18:46:33.692Z,26.70
2019-04-01T18:49:02.008Z,23.98
2019-04-01T18:51:30.370Z,23.90
2019-04-01T18:53:58.929Z,24.10
2019-04-01T18:56:28.227Z,22.80
2019-04-01T18:58:57.989Z,24.47
2019-04-01T19:01:26.293Z,24.40
2019-04-01T19:03:54.615Z,24.10
2019-04-01T19:06:23.308Z,24.75
2019-04-01T19:08:51.963Z,24.55
2019-04-01T19:11:20.693Z,24.82
2019-04-01T19:13:48.998Z,25.80
2019-04-01T19:16:17.585Z,23.92
2019-04-01T19:18:46.247Z,24.05
2019-04-01T19:21:14.719Z,23.62
2019-04-01T19:23:43.105Z,24.10
2019-04-01T19:26:11.485Z,24.47
2019-04-01T19:28:39.799Z,23.25
2019-04-01T19:31:08.109Z,24.50
2019-04-01T19:33:38.070Z,25.15
2019-04-01T19:36:06.681Z,24.82
2019-04-01T19:38:35.596Z,24.23
2019-04-01T19:41:04.005Z,25.62
2019-04-01T19:43:32.332Z,25.02
2019-04-01T19:46:00.714Z,24.37
2019-04-01T19:48:29.302Z,25.30
2019-04-01T19:50:59.181Z,26.02
2019-04-01T19:53:27.894Z,24.65
2019-04-01T19:55:56.987Z,26.52
2019-04-01T19:58:25.607Z,26.77
2019-04-01T20:00:54.781Z,25.27
2019-04-01T20:03:25.366Z,25.40
2019-04-01T20:05:54.198Z,24.95
2019-04-01T20:08:22.885Z,25.65
2019-04-01T20:10:51.561Z,25.32
2019-04-01T20:13:19.921Z,24.15
2019-04-01T20:15:48.518Z,23.77
2019-04-01T20:18:17.102Z,25.55
2019-04-01T20:20:45.515Z,25.80
2019-04-01T20:23:13.885Z,26.02
2019-04-01T20:25:42.680Z,25.27
2019-04-01T20:28:11.086Z,26.90
2019-04-01T20:30:42.475Z,27.02
2019-04-01T20:33:17.508Z,25.97
2019-04-01T20:35:40.410Z,27.00
2019-04-01T20:38:08.780Z,27.93
2019-04-01T20:40:37.429Z,25.65
2019-04-01T20:43:06.220Z,28.47
2019-04-01T20:45:34.748Z,27.55
2019-04-01T20:48:04.408Z,27.05
2019-04-01T20:50:33.477Z,25.70
2019-04-01T20:53:01.784Z,26.48
2019-04-01T20:55:30.169Z,24.95
2019-04-01T20:57:58.769Z,27.37
2019-04-01T21:00:27.174Z,27.17
2019-04-01T21:02:55.677Z,26.25
2019-04-01T21:05:24.556Z,25.95
2019-04-01T21:07:53.495Z,26.97
2019-04-01T21:10:22.155Z,27.98
2019-04-01T21:12:50.806Z,27.98
2019-04-01T21:15:19.545Z,27.05
2019-04-01T21:17:48.184Z,26.70
2019-04-01T21:20:16.568Z,27.07
2019-04-01T21:22:44.872Z,25.90
2019-04-01T21:25:14.257Z,26.30
2019-04-01T21:27:42.921Z,27.73
2019-04-01T21:30:11.806Z,27.70
2019-04-01T21:32:40.301Z,26.33
2019-04-01T21:35:09.441Z,26.65
2019-04-01T21:37:38.055Z,25.85
2019-04-01T21:40:07.277Z,28.45
2019-04-01T21:42:35.849Z,27.25
2019-04-01T21:45:06.568Z,27.73
2019-04-01T21:47:35.270Z,26.60
2019-04-01T21:50:06.485Z,26.55
2019-04-01T21:52:35.518Z,27.50
2019-04-01T21:55:07.717Z,28.17
2019-04-01T22:00:03.055Z,27.58
2019-04-01T22:02:36.092Z,27.62
2019-04-01T22:05:01.836Z,28.07
2019-04-01T22:07:30.493Z,28.52
2019-04-01T22:09:59.426Z,28.75
2019-04-01T22:12:27.857Z,28.70
2019-04-01T22:14:56.213Z,29.37
2019-04-01T22:17:24.517Z,27.65
2019-04-01T22:19:53.185Z,28.90
2019-04-01T22:22:21.837Z,28.00
2019-04-01T22:24:50.177Z,27.37
2019-04-01T22:27:18.540Z,29.12
2019-04-01T22:29:47.033Z,29.72
2019-04-01T22:32:15.449Z,28.80
2019-04-01T22:34:43.996Z,31.12
2019-04-01T22:37:12.756Z,28.75
2019-04-01T22:39:41.361Z,29.72
2019-04-01T22:42:09.716Z,28.57
2019-04-01T22:44:38.037Z,29.85
2019-04-01T22:47:06.692Z,29.52
2019-04-01T22:49:35.340Z,28.47
2019-04-01T22:52:06.253Z,30.72
2019-04-01T22:54:34.745Z,30.43
2019-04-01T22:57:03.511Z,29.55
2019-04-01T22:59:32.216Z,29.07
2019-04-01T23:02:00.945Z,29.37
2019-04-01T23:04:29.545Z,29.92
2019-04-01T23:06:58.286Z,29.87
2019-04-01T23:09:26.598Z,31.27
2019-04-01T23:11:55.214Z,29.18
2019-04-01T23:14:23.596Z,29.65
2019-04-01T23:16:52.201Z,27.55
2019-04-01T23:19:20.842Z,29.45
2019-04-01T23:21:49.569Z,27.48
2019-04-01T23:24:18.202Z,29.25
2019-04-01T23:26:46.537Z,28.67
2019-04-01T23:29:15.165Z,29.10
2019-04-01T23:31:44.290Z,28.92
2019-04-01T23:34:13.209Z,28.02
2019-04-01T23:36:42.661Z,26.82
2019-04-01T23:39:11.147Z,28.92
2019-04-01T23:41:39.496Z,25.95
2019-04-01T23:44:08.104Z,26.70
2019-04-01T23:46:36.902Z,27.77
2019-04-01T23:49:05.498Z,27.22
2019-04-01T23:51:34.165Z,27.62
2019-04-01T23:54:02.921Z,26.70
2019-04-01T23:56:31.538Z,27.90
2019-04-01T23:58:59.901Z,27.20
